Time;durP1;ratioP1;P1;durP2;ratioP2;P2;SDS_P1;SDS_P2;PMS_P1;PMS_P2;Temp;Humidity;BMP_temperature;BMP_pressure;BME280_temperature;BME280_humidity;BME280_pressure;Samples;Min_cycle;Max_cycle;Signal;HPM_P1;HPM_P2
2021/12/13 00:00:41;;;;;;;53.10;27.75;;;9.30;99.90;;;10.01;100.00;101440.06;5034561;28;20057;-77
2021/12/13 00:03:13;;;;;;;50.00;26.30;;;9.30;99.90;;;10.02;100.00;101438.91;5034635;28;20036;-79
2021/12/13 00:05:53;;;;;;;51.78;25.98;;;9.30;99.90;;;10.06;100.00;101441.84;5034804;28;20042;-80
2021/12/13 00:08:34;;;;;;;48.90;27.08;;;9.30;99.90;;;10.12;100.00;101445.25;5032982;28;20025;-78
2021/12/13 00:11:32;;;;;;;47.22;26.65;;;9.30;99.90;;;10.05;100.00;101443.81;5032445;28;20033;-79
2021/12/13 00:14:11;;;;;;;54.50;27.35;;;9.30;99.90;;;10.01;100.00;101439.25;5026062;28;20061;-79
2021/12/13 00:16:56;;;;;;;48.08;26.33;;;9.20;99.90;;;10.06;100.00;101445.47;5033915;28;20036;-78
2021/12/13 00:20:12;;;;;;;45.00;25.42;;;9.30;99.90;;;10.05;100.00;101437.41;5034327;28;20029;-78
2021/12/13 00:22:48;;;;;;;41.70;22.95;;;9.30;99.90;;;10.06;100.00;101441.84;5048760;28;20025;-79
2021/12/13 00:25:25;;;;;;;38.50;24.65;;;9.30;99.90;;;10.10;100.00;101442.00;5054401;28;20107;-78
2021/12/13 00:28:13;;;;;;;42.10;23.48;;;9.30;99.90;;;10.11;100.00;101444.47;5052628;28;20036;-78
2021/12/13 00:31:36;;;;;;;45.83;24.58;;;9.30;99.90;;;10.12;100.00;101440.50;5054292;28;20560;-79
2021/12/13 00:34:39;;;;;;;41.20;24.42;;;9.30;99.90;;;10.12;100.00;101448.88;5054669;28;20032;-78
2021/12/13 00:37:24;;;;;;;44.75;24.35;;;9.30;99.90;;;10.09;100.00;101441.16;5054026;28;20029;-79
2021/12/13 00:40:13;;;;;;;37.10;22.98;;;9.30;99.90;;;10.10;100.00;101447.56;5054145;28;20043;-80
2021/12/13 00:43:07;;;;;;;39.38;22.77;;;9.30;99.90;;;10.13;100.00;101444.09;5054167;28;20070;-79
2021/12/13 00:45:47;;;;;;;39.45;22.17;;;9.30;99.90;;;10.13;100.00;101446.91;5052672;28;20037;-79
2021/12/13 00:48:16;;;;;;;35.72;21.45;;;9.30;99.90;;;10.10;100.00;101448.41;5052721;28;20092;-78
2021/12/13 00:51:00;;;;;;;37.20;22.73;;;9.30;99.90;;;10.10;100.00;101453.16;5055398;28;20029;-79
2021/12/13 00:53:35;;;;;;;34.28;21.88;;;9.30;99.90;;;10.07;100.00;101449.91;5063684;28;20033;-77
2021/12/13 00:56:58;;;;;;;31.90;21.23;;;9.30;99.90;;;10.09;100.00;101457.91;5063760;28;20052;-80
2021/12/13 00:59:41;;;;;;;31.10;20.88;;;9.30;99.90;;;10.03;100.00;101450.88;5057586;28;20029;-78
2021/12/13 01:02:30;;;;;;;33.55;19.42;;;9.30;99.90;;;10.02;100.00;101452.03;5035725;28;20488;-79
2021/12/13 01:05:35;;;;;;;32.47;19.15;;;9.30;99.90;;;10.05;100.00;101459.75;5051367;28;20115;-77
2021/12/13 01:08:53;;;;;;;29.15;19.48;;;9.30;99.90;;;10.07;100.00;101463.03;5062183;28;20032;-78
2021/12/13 01:11:59;;;;;;;28.05;17.63;;;9.30;99.90;;;10.07;100.00;101460.25;5064415;28;20029;-78
2021/12/13 01:14:36;;;;;;;30.05;18.48;;;9.30;99.90;;;10.07;100.00;101469.44;5063569;28;20059;-78
2021/12/13 01:21:15;;;;;;;27.13;17.02;;;9.30;99.90;;;10.04;100.00;101467.31;5057914;28;20510;-81
2021/12/13 01:23:45;;;;;;;26.67;16.88;;;9.20;99.90;;;10.01;100.00;101464.38;5013170;28;20221;-78
2021/12/13 01:26:37;;;;;;;26.42;17.33;;;9.30;99.90;;;10.01;100.00;101472.75;5013625;28;20120;-78
2021/12/13 01:29:27;;;;;;;28.17;17.33;;;9.30;99.90;;;10.05;100.00;101473.69;5012958;28;20042;-80
2021/12/13 01:32:06;;;;;;;27.20;17.13;;;9.30;99.90;;;9.99;100.00;101472.25;5004498;28;20038;-80
2021/12/13 01:34:37;;;;;;;26.63;17.92;;;9.20;99.90;;;10.04;100.00;101475.69;4995604;28;20030;-78
2021/12/13 01:37:15;;;;;;;26.83;17.38;;;9.30;99.90;;;10.05;100.00;101479.28;5013792;28;20036;-79
2021/12/13 01:39:52;;;;;;;27.45;17.58;;;9.20;99.90;;;9.97;100.00;101485.72;5013894;28;20037;-78
2021/12/13 01:42:31;;;;;;;29.95;17.17;;;9.30;99.90;;;10.02;100.00;101483.56;5013902;28;20026;-79
2021/12/13 01:45:13;;;;;;;32.10;18.63;;;9.20;99.90;;;10.01;100.00;101484.72;5011932;28;20032;-79
2021/12/13 01:47:45;;;;;;;30.10;17.48;;;9.20;99.90;;;9.98;100.00;101479.00;5012573;28;20030;-79
2021/12/13 01:50:28;;;;;;;27.77;17.45;;;9.20;99.90;;;9.95;100.00;101488.84;5013419;28;20440;-79
2021/12/13 01:52:57;;;;;;;25.45;17.13;;;9.20;99.90;;;9.99;100.00;101489.81;5013103;28;20038;-80
2021/12/13 01:55:37;;;;;;;26.38;17.58;;;9.20;99.90;;;9.99;100.00;101489.81;4995836;28;20034;-79
2021/12/13 02:01:18;;;;;;;26.27;17.25;;;9.20;99.90;;;9.95;100.00;101491.63;5013023;28;20036;-80
2021/12/13 02:04:05;;;;;;;24.52;15.88;;;9.20;99.90;;;9.96;100.00;101496.06;5013081;28;20034;-78
2021/12/13 02:06:47;;;;;;;28.65;17.67;;;9.20;99.90;;;9.92;100.00;101492.28;5015865;28;20026;-78
2021/12/13 02:09:17;;;;;;;25.60;15.90;;;9.20;99.90;;;9.88;100.00;101499.72;5016596;28;20033;-81
2021/12/13 02:11:54;;;;;;;26.48;18.25;;;9.20;99.90;;;9.84;100.00;101497.91;5015616;28;20041;-78
2021/12/13 02:14:29;;;;;;;26.27;16.65;;;9.20;99.90;;;9.90;100.00;101502.97;5016686;28;20489;-79
2021/12/13 02:17:11;;;;;;;25.35;18.23;;;9.20;99.90;;;9.92;100.00;101500.66;5016160;28;20026;-79
2021/12/13 02:19:48;;;;;;;28.70;17.85;;;9.10;99.90;;;9.95;100.00;101507.56;5015981;28;20092;-79
2021/12/13 02:22:32;;;;;;;27.45;17.83;;;9.10;99.90;;;9.92;100.00;101505.44;5038535;28;20113;-79
2021/12/13 02:25:19;;;;;;;28.20;17.85;;;9.10;99.90;;;9.89;100.00;101506.09;5055810;28;20035;-80
2021/12/13 02:27:58;;;;;;;26.45;17.63;;;9.10;99.90;;;9.89;100.00;101508.88;5055745;28;20537;-79
2021/12/13 02:30:47;;;;;;;28.70;18.25;;;9.10;99.90;;;9.82;100.00;101506.63;5055164;28;20064;-77
2021/12/13 02:33:48;;;;;;;28.35;18.15;;;9.10;99.90;;;9.82;100.00;101509.41;5054642;28;20037;-78
2021/12/13 02:36:24;;;;;;;25.33;17.48;;;9.10;99.90;;;9.84;100.00;101507.09;5044506;28;20121;-79
2021/12/13 02:38:56;;;;;;;31.85;19.38;;;9.10;99.90;;;9.82;100.00;101506.63;5055581;28;20112;-79
2021/12/13 02:41:31;;;;;;;32.20;19.17;;;9.10;99.90;;;9.82;100.00;101511.38;5056822;28;20032;-80
2021/12/13 02:44:30;;;;;;;28.25;18.10;;;9.10;99.90;;;9.82;100.00;101505.81;5056046;28;20036;-78
2021/12/13 02:47:05;;;;;;;28.30;17.90;;;9.10;99.90;;;9.79;100.00;101506.47;5056307;28;20057;-79
2021/12/13 02:49:38;;;;;;;35.05;19.50;;;9.10;99.90;;;9.77;100.00;101503.19;5054358;28;20029;-78
2021/12/13 02:52:11;;;;;;;38.25;20.60;;;9.00;99.90;;;9.77;100.00;101508.75;5056534;28;20036;-79
2021/12/13 02:54:57;;;;;;;31.33;19.45;;;9.00;99.90;;;9.71;100.00;101499.75;5059299;28;20047;-77
2021/12/13 02:57:40;;;;;;;31.95;19.35;;;9.00;99.90;;;9.73;100.00;101500.22;5040222;28;20056;-79
2021/12/13 03:00:47;;;;;;;33.50;19.10;;;9.00;99.90;;;9.65;100.00;101501.06;5054837;28;20055;-79
2021/12/13 03:03:27;;;;;;;;;;;9.00;99.90;;;9.67;100.00;101507.13;5054225;28;20392;-78
2021/12/13 03:05:58;;;;;;;34.55;17.25;;;9.00;99.90;;;9.69;100.00;101499.28;5037147;28;19912;-79
2021/12/13 03:08:42;;;;;;;30.75;17.65;;;9.00;99.90;;;9.70;100.00;101508.44;5055823;28;20048;-80
2021/12/13 03:11:22;;;;;;;31.38;18.50;;;8.90;99.90;;;9.65;100.00;101509.44;5054409;28;20025;-79
2021/12/13 03:14:10;;;;;;;28.27;17.20;;;8.90;99.90;;;9.73;100.00;101511.38;5056445;28;20072;-80
2021/12/13 03:17:07;;;;;;;30.30;17.30;;;8.90;99.90;;;9.68;100.00;101506.00;5053841;28;20535;-80
2021/12/13 03:20:18;;;;;;;30.58;17.88;;;8.90;99.90;;;9.64;100.00;101505.00;5055288;28;20033;-80
2021/12/13 03:23:21;;;;;;;31.23;16.48;;;8.90;99.90;;;9.66;100.00;101513.06;5040095;28;20033;-79
2021/12/13 03:26:29;;;;;;;25.08;15.85;;;8.90;99.90;;;9.65;100.00;101511.41;5035760;28;20033;-80
2021/12/13 03:29:58;;;;;;;31.38;16.95;;;8.90;99.90;;;9.66;100.00;101507.47;5016504;28;20053;-79
2021/12/13 03:32:39;;;;;;;25.17;15.50;;;8.90;99.90;;;9.64;100.00;101510.59;5018156;28;20096;-78
2021/12/13 03:35:18;;;;;;;30.23;16.15;;;8.90;99.90;;;9.61;100.00;101508.47;5035449;28;20067;-79
2021/12/13 03:37:45;;;;;;;26.00;15.13;;;8.80;99.90;;;9.61;100.00;101510.44;5017532;28;20060;-81
2021/12/13 03:40:20;;;;;;;26.60;14.32;;;8.80;99.90;;;9.64;100.00;101509.75;5033361;28;20033;-78
2021/12/13 03:42:59;;;;;;;22.92;14.93;;;8.80;99.90;;;9.61;100.00;101505.69;5052674;22;20017;-76
2021/12/13 03:45:45;;;;;;;24.23;14.85;;;8.80;99.90;;;9.60;100.00;101517.97;5076583;28;20151;-77
2021/12/13 03:48:17;;;;;;;25.67;14.75;;;8.80;99.90;;;9.60;100.00;101523.56;5076287;28;20028;-77
2021/12/13 03:50:52;;;;;;;23.58;13.77;;;8.80;99.90;;;9.59;100.00;101521.09;5075221;28;20081;-76
2021/12/13 03:53:26;;;;;;;25.63;14.75;;;8.80;99.90;;;9.57;100.00;101517.84;5075825;28;20032;-77
2021/12/13 03:56:10;;;;;;;26.48;14.10;;;8.80;99.90;;;9.54;100.00;101530.44;5073981;28;20075;-79
2021/12/13 03:58:52;;;;;;;24.70;14.63;;;8.80;99.90;;;9.55;100.00;101523.72;5074640;28;20059;-76
2021/12/13 04:01:41;;;;;;;21.17;13.32;;;8.80;99.90;;;9.53;100.00;101526.84;5090727;28;20025;-80
2021/12/13 04:04:28;;;;;;;24.30;13.55;;;8.80;99.90;;;9.51;100.00;101519.97;5073914;28;20119;-74
2021/12/13 04:07:06;;;;;;;21.27;13.18;;;8.80;99.90;;;9.49;100.00;101523.09;5075573;28;20033;-77
2021/12/13 04:09:35;;;;;;;25.55;13.80;;;8.80;99.90;;;9.49;100.00;101519.47;5075192;28;20035;-79
2021/12/13 04:12:07;;;;;;;23.63;12.65;;;8.70;99.90;;;9.47;100.00;101513.44;5091404;28;20025;-78
2021/12/13 04:14:55;;;;;;;19.50;12.43;;;8.70;99.90;;;9.49;100.00;101525.06;5075195;28;20104;-78
2021/12/13 04:20:38;;;;;;;18.73;12.20;;;8.70;99.90;;;9.47;100.00;101530.16;5054109;28;20044;-80
2021/12/13 04:23:22;;;;;;;21.00;11.70;;;8.70;99.90;;;9.44;100.00;101523.25;5075405;28;20466;-76
2021/12/13 04:25:50;;;;;;;20.05;13.25;;;8.70;99.90;;;9.44;100.00;101528.00;5075429;28;20039;-78
2021/12/13 04:28:26;;;;;;;19.90;12.30;;;8.70;99.90;;;9.48;100.00;101527.03;5074608;28;20025;-79
2021/12/13 04:31:03;;;;;;;21.00;11.82;;;8.70;99.90;;;9.45;100.00;101527.69;5075892;28;20058;-80
2021/12/13 04:33:39;;;;;;;19.02;11.88;;;8.70;99.90;;;9.42;100.00;101528.34;5076597;28;20025;-77
2021/12/13 04:36:23;;;;;;;20.30;12.07;;;8.70;99.90;;;9.46;100.00;101531.28;5074769;28;20048;-80
2021/12/13 04:38:59;;;;;;;24.52;11.75;;;8.70;99.90;;;9.44;100.00;101533.56;5073615;28;20101;-76
2021/12/13 04:41:39;;;;;;;23.55;12.48;;;8.70;99.90;;;9.45;100.00;101538.84;5074235;28;20388;-80
2021/12/13 04:44:37;;;;;;;25.17;12.73;;;8.70;99.90;;;9.44;100.00;101539.16;5074670;28;20488;-80
2021/12/13 04:48:06;;;;;;;21.02;11.85;;;8.70;99.90;;;9.41;100.00;101543.44;5074777;28;20737;-77
2021/12/13 04:51:16;;;;;;;19.27;10.38;;;8.70;99.90;;;9.42;100.00;101541.47;5070296;28;20044;-79
2021/12/13 04:53:52;;;;;;;16.08;10.30;;;8.70;99.90;;;9.48;100.00;101546.53;5080004;28;20092;-79
2021/12/13 04:56:28;;;;;;;16.65;10.68;;;8.70;99.90;;;9.45;100.00;101543.59;5083869;28;20032;-79
2021/12/13 04:59:01;;;;;;;17.27;10.63;;;8.70;99.90;;;9.47;100.00;101541.31;5082659;28;20030;-81
2021/12/13 05:01:28;;;;;;;18.95;10.95;;;8.70;99.90;;;9.51;100.00;101553.41;5079007;28;20112;-78
2021/12/13 05:04:03;;;;;;;14.50;10.32;;;8.70;99.90;;;9.49;100.00;101541.78;5073599;28;20032;-80
2021/12/13 05:06:40;;;;;;;19.08;11.07;;;8.70;99.90;;;9.46;100.00;101546.06;5075091;28;20028;-79
2021/12/13 05:09:15;;;;;;;18.80;10.85;;;8.70;99.90;;;9.48;100.00;101551.28;5075129;28;20432;-77
2021/12/13 05:12:01;;;;;;;17.23;10.32;;;8.70;99.90;;;9.50;100.00;101552.59;5076084;28;20056;-76
2021/12/13 05:14:43;;;;;;;16.77;10.45;;;8.70;99.90;;;9.50;100.00;101554.59;5077650;28;20103;-79
2021/12/13 05:17:18;;;;;;;19.48;10.77;;;8.70;99.90;;;9.44;100.00;101553.91;5075907;28;20028;-77
2021/12/13 05:20:16;;;;;;;20.67;10.97;;;8.70;99.90;;;9.45;100.00;101563.09;5074017;28;20111;-76
2021/12/13 05:23:20;;;;;;;20.58;10.90;;;8.70;99.90;;;9.49;100.00;101564.91;5073720;28;20028;-77
2021/12/13 05:25:59;;;;;;;15.60;9.85;;;8.70;99.90;;;9.49;100.00;101564.91;5075300;28;20028;-79
2021/12/13 05:28:44;;;;;;;16.52;10.98;;;8.70;99.90;;;9.44;100.00;101553.91;5074624;28;20033;-75
2021/12/13 05:31:25;;;;;;;14.75;9.70;;;8.70;99.90;;;9.48;100.00;101554.09;5075453;28;20020;-77
2021/12/13 05:34:09;;;;;;;18.52;10.65;;;8.70;99.90;;;9.47;100.00;101549.69;5074525;28;20025;-75
2021/12/13 05:36:38;;;;;;;21.83;10.70;;;8.70;99.90;;;9.43;100.00;101551.47;5075432;28;20025;-78
2021/12/13 05:39:17;;;;;;;19.48;10.40;;;8.70;99.90;;;9.48;100.00;101551.28;5074831;28;20031;-77
2021/12/13 05:42:10;;;;;;;16.13;10.20;;;8.70;99.90;;;9.43;100.00;101562.63;5080500;28;20040;-78
2021/12/13 05:44:46;;;;;;;18.23;10.48;;;8.70;99.90;;;9.45;100.00;101555.56;5079460;28;20058;-75
2021/12/13 05:47:27;;;;;;;16.92;9.57;;;8.70;99.90;;;9.47;100.00;101555.25;5079317;28;20120;-78
2021/12/13 05:49:54;;;;;;;14.38;10.40;;;8.70;99.90;;;9.48;100.00;101559.66;5081665;28;20021;-78
2021/12/13 05:52:34;;;;;;;14.27;9.30;;;8.70;99.90;;;9.48;100.00;101554.09;5080769;28;20025;-77
2021/12/13 05:55:13;;;;;;;18.65;9.95;;;8.70;99.90;;;9.42;100.00;101556.22;5080529;28;20029;-79
2021/12/13 05:57:51;;;;;;;17.30;10.35;;;8.70;99.90;;;9.41;100.00;101554.56;5080097;28;20044;-78
2021/12/13 06:00:33;;;;;;;14.80;8.98;;;8.80;99.90;;;9.41;100.00;101554.56;5080661;28;20115;-78
2021/12/13 06:03:08;;;;;;;17.20;10.02;;;8.70;99.90;;;9.44;100.00;101556.72;5080122;28;20063;-77
2021/12/13 06:05:44;;;;;;;15.57;10.13;;;8.80;99.90;;;9.43;100.00;101563.44;5079004;28;20059;-78
2021/12/13 06:08:34;;;;;;;15.65;8.50;;;8.80;99.90;;;9.42;100.00;101559.00;5079793;28;20036;-76
2021/12/13 06:11:19;;;;;;;14.48;9.43;;;8.80;99.90;;;9.38;100.00;101563.59;5080034;28;20032;-76
2021/12/13 06:13:46;;;;;;;16.50;9.65;;;8.80;99.90;;;9.39;100.00;101562.47;5079570;28;20028;-77
2021/12/13 06:16:24;;;;;;;14.07;9.30;;;8.80;99.90;;;9.45;100.00;101557.53;5077768;28;20391;-77
2021/12/13 06:19:29;;;;;;;14.50;8.85;;;8.70;99.90;;;9.40;100.00;101560.50;5077244;28;20036;-78
2021/12/13 06:22:20;;;;;;;13.20;7.90;;;8.70;99.90;;;9.40;100.00;101569.69;5078983;28;20024;-77
2021/12/13 06:25:24;;;;;;;14.68;9.40;;;8.80;99.90;;;9.41;100.00;101567.69;5079465;28;20035;-75
2021/12/13 06:27:59;;;;;;;14.55;8.73;;;8.70;99.90;;;9.38;100.00;101569.19;5069171;28;20510;-76
2021/12/13 06:30:39;;;;;;;13.07;8.32;;;8.70;99.90;;;9.36;100.00;101573.44;5077740;28;20094;-76
2021/12/13 06:33:11;;;;;;;14.15;8.18;;;8.70;99.90;;;9.35;100.00;101569.84;5079336;28;20064;-75
2021/12/13 06:36:03;;;;;;;15.13;8.50;;;8.70;99.90;;;9.35;100.00;101567.03;5110241;28;20123;-76
2021/12/13 06:38:55;;;;;;;12.90;8.65;;;8.70;99.90;;;9.39;100.00;101559.69;5086713;28;20393;-76
2021/12/13 06:41:27;;;;;;;19.92;8.65;;;8.70;99.90;;;9.37;100.00;101559.19;5078544;28;20546;-76
2021/12/13 06:44:34;;;;;;;11.82;8.10;;;8.70;99.90;;;9.39;100.00;101573.63;5078936;28;20044;-76
2021/12/13 06:47:21;;;;;;;14.95;7.72;;;8.70;99.90;;;9.45;100.00;101566.72;5048282;28;20045;-76
2021/12/13 06:49:57;;;;;;;12.13;8.50;;;8.70;99.90;;;9.43;100.00;101571.00;5078344;28;20029;-77
2021/12/13 06:52:32;;;;;;;;;;;8.70;99.90;;;9.39;100.00;101572.78;5078987;28;20017;-77
2021/12/13 06:55:12;;;;;;;13.15;7.05;;;8.70;99.90;;;9.43;100.00;101571.00;5078518;28;19918;-75
2021/12/13 06:57:47;;;;;;;14.32;8.35;;;8.80;99.90;;;9.43;100.00;101573.78;5078817;28;20374;-76
2021/12/13 07:00:21;;;;;;;12.27;7.20;;;8.80;99.90;;;9.44;100.00;101587.38;5079068;28;20035;-78
2021/12/13 07:03:11;;;;;;;11.15;6.45;;;8.80;99.90;;;9.46;100.00;101571.16;5078199;28;20031;-76
2021/12/13 07:06:00;;;;;;;13.43;7.53;;;8.80;99.90;;;9.49;100.00;101572.47;5078943;28;20040;-78
2021/12/13 07:08:37;;;;;;;14.00;7.88;;;8.80;99.90;;;9.45;100.00;101580.66;5084290;28;20060;-78
2021/12/13 07:11:13;;;;;;;9.93;6.47;;;8.80;99.90;;;9.49;100.00;101580.84;5081904;28;20052;-80
2021/12/13 07:14:02;;;;;;;13.98;7.45;;;8.80;99.90;;;9.46;100.00;101578.69;5079386;28;20078;-78
2021/12/13 07:16:39;;;;;;;11.57;6.68;;;8.80;99.90;;;9.50;100.00;101582.47;5080472;28;20085;-79
2021/12/13 07:19:30;;;;;;;10.75;6.53;;;8.80;99.90;;;9.49;100.00;101580.84;5080325;28;20016;-78
2021/12/13 07:22:17;;;;;;;10.25;7.03;;;8.80;99.90;;;9.47;100.00;101578.34;5070490;28;20199;-78
2021/12/13 07:24:52;;;;;;;;;;;8.80;99.90;;;9.53;100.00;101599.34;5062241;28;20036;-79
2021/12/13 07:27:50;;;;;;;12.07;7.03;;;8.80;99.90;;;9.48;100.00;101588.38;5058309;28;19909;-79
2021/12/13 07:30:30;;;;;;;13.70;7.35;;;8.80;99.90;;;9.53;100.00;101593.78;5074392;28;20312;-80
2021/12/13 07:33:03;;;;;;;12.15;7.22;;;8.80;99.90;;;9.55;100.00;101599.03;5060388;28;20060;-78
2021/12/13 07:35:48;;;;;;;9.98;6.70;;;8.80;99.90;;;9.53;100.00;101596.56;5060525;28;20075;-79
2021/12/13 07:38:26;;;;;;;10.45;6.75;;;8.80;99.90;;;9.54;100.00;101600.19;5058397;28;20040;-79
2021/12/13 07:41:06;;;;;;;11.65;6.97;;;8.80;99.90;;;9.53;100.00;101604.94;5063354;28;20369;-79
2021/12/13 07:43:46;;;;;;;10.95;7.00;;;8.80;99.90;;;9.59;100.00;101602.00;5066067;28;20059;-82
2021/12/13 07:46:18;;;;;;;13.18;7.43;;;8.80;99.90;;;9.53;100.00;101609.72;5061475;28;20056;-81
2021/12/13 07:48:51;;;;;;;10.50;6.47;;;8.80;99.90;;;9.55;100.00;101610.19;5058900;28;20089;-80
2021/12/13 07:51:27;;;;;;;11.05;6.80;;;8.80;99.90;;;9.54;100.00;101614.94;5060079;28;20025;-82
2021/12/13 07:53:59;;;;;;;12.32;7.47;;;8.80;99.90;;;9.54;100.00;101623.31;5059390;28;20041;-82
2021/12/13 07:57:03;;;;;;;11.75;6.93;;;8.80;99.90;;;9.57;100.00;101623.81;5056457;28;20025;-79
2021/12/13 07:59:37;;;;;;;11.45;7.05;;;8.80;99.90;;;9.56;100.00;101627.75;5058001;28;20025;-82
2021/12/13 08:02:08;;;;;;;13.45;7.35;;;8.80;99.90;;;9.54;100.00;101628.88;5060259;28;20025;-74
2021/12/13 08:05:11;;;;;;;11.00;7.20;;;8.80;99.90;;;9.56;100.00;101633.34;5066799;28;20373;-81
2021/12/13 08:07:58;;;;;;;14.70;7.40;;;8.90;99.90;;;9.57;100.00;101626.63;5066293;28;20046;-82
2021/12/13 08:10:42;;;;;;;12.02;8.38;;;8.90;99.90;;;9.58;100.00;101640.22;5074899;28;20032;-81
2021/12/13 08:13:23;;;;;;;11.15;6.97;;;8.90;99.90;;;9.61;100.00;101645.13;5058941;28;20576;-79
2021/12/13 08:16:07;;;;;;;11.55;6.45;;;8.90;99.90;;;9.61;100.00;101655.47;5059783;28;20036;-77
2021/12/13 08:18:49;;;;;;;15.07;7.72;;;8.90;99.90;;;9.62;100.00;101655.16;5060663;28;20051;-78
2021/12/13 08:21:26;;;;;;;12.15;7.00;;;8.90;99.90;;;9.62;100.00;101655.16;5058940;28;20143;-79
2021/12/13 08:24:01;;;;;;;14.27;7.78;;;8.90;99.90;;;9.59;100.00;101663.34;5076148;28;20028;-84
2021/12/13 08:26:42;;;;;;;13.18;6.82;;;8.90;99.90;;;9.62;100.00;101655.16;5094507;28;20123;-80
2021/12/13 08:29:33;;;;;;;12.68;6.93;;;8.90;99.90;;;9.65;100.00;101659.25;5080005;28;20052;-81
2021/12/13 08:32:25;;;;;;;13.57;7.65;;;8.90;99.90;;;9.65;100.00;101665.66;5080876;28;20021;-81
2021/12/13 08:35:01;;;;;;;12.40;7.38;;;8.90;99.90;;;9.68;100.00;101664.19;5078192;28;20024;-78
2021/12/13 08:37:41;;;;;;;14.23;7.65;;;9.00;99.90;;;9.70;100.00;101668.28;5078330;28;20418;-79
2021/12/13 08:40:23;;;;;;;10.43;7.25;;;9.00;99.90;;;9.68;100.00;101664.19;5092823;28;20032;-78
2021/12/13 08:42:56;;;;;;;15.18;8.20;;;8.90;99.90;;;9.63;100.00;101667.13;5092233;28;20024;-77
2021/12/13 08:45:38;;;;;;;12.18;7.20;;;9.00;99.90;;;9.70;100.00;101673.03;5075896;28;20044;-79
2021/12/13 08:48:12;;;;;;;13.80;8.25;;;9.00;99.90;;;9.76;100.00;101668.94;5078150;28;20033;-82
2021/12/13 08:51:01;;;;;;;14.10;7.82;;;9.00;99.90;;;9.67;100.00;101674.50;5077067;28;20027;-81
2021/12/13 08:53:38;;;;;;;11.57;7.13;;;9.00;99.90;;;9.71;100.00;101675.50;5080990;28;20132;-80
2021/12/13 08:56:20;;;;;;;11.95;7.47;;;9.00;99.90;;;9.73;100.00;101667.63;5095720;28;20452;-81
2021/12/13 08:59:05;;;;;;;17.92;7.70;;;9.00;99.90;;;9.77;100.00;101659.41;5078542;28;20413;-80
2021/12/13 09:02:10;;;;;;;14.00;7.13;;;9.10;99.90;;;9.78;100.00;101658.28;5077824;28;20031;-80
2021/12/13 09:05:18;;;;;;;13.38;7.50;;;9.10;99.90;;;9.79;100.00;101671.88;4999054;28;20030;-81
2021/12/13 09:08:13;;;;;;;11.90;6.65;;;9.10;99.90;;;9.80;100.00;101670.75;5078102;28;20127;-81
2021/12/13 09:11:01;;;;;;;12.48;7.63;;;9.10;99.90;;;9.78;100.00;101673.06;5077706;28;20025;-79
2021/12/13 09:14:13;;;;;;;10.70;7.30;;;9.10;99.90;;;9.79;100.00;101674.66;5095749;28;20141;-80
2021/12/13 09:17:27;;;;;;;15.68;7.93;;;9.10;99.90;;;9.81;100.00;101672.38;5084052;28;20111;-79
2021/12/13 09:20:02;;;;;;;10.68;7.57;;;9.10;99.90;;;9.80;100.00;101678.28;5079119;28;20024;-80
2021/12/13 09:22:57;;;;;;;12.43;7.50;;;9.20;99.90;;;9.79;100.00;101683.03;5081028;28;20032;-79
2021/12/13 09:25:45;;;;;;;11.52;7.45;;;9.20;99.90;;;9.75;100.00;101670.91;5074198;28;20036;-76
2021/12/13 09:28:29;;;;;;;12.60;7.68;;;9.20;99.90;;;9.80;100.00;101675.50;5079829;28;20021;-77
2021/12/13 09:31:37;;;;;;;11.88;7.32;;;9.10;99.90;;;9.83;100.00;101674.84;5078032;28;20395;-76
2021/12/13 09:34:19;;;;;;;13.38;7.43;;;9.10;99.90;;;9.88;100.00;101677.47;5080257;28;20024;-77
2021/12/13 09:36:57;;;;;;;10.23;6.78;;;9.20;99.90;;;9.81;100.00;101669.59;5083236;28;20471;-84
2021/12/13 09:39:29;;;;;;;12.38;7.55;;;9.20;99.90;;;9.83;100.00;101688.78;5085958;28;20033;-82
2021/12/13 09:42:16;;;;;;;12.55;7.97;;;9.20;99.90;;;9.90;100.00;101687.16;5088507;28;20035;-84
2021/12/13 09:45:01;;;;;;;11.57;6.78;;;9.20;99.90;;;9.88;100.00;101683.88;5106907;28;20037;-84
2021/12/13 09:47:41;;;;;;;14.15;7.30;;;9.20;99.90;;;9.88;100.00;101697.84;5090759;28;20020;-79
2021/12/13 09:50:20;;;;;;;11.25;7.28;;;9.30;99.90;;;9.92;100.00;101693.22;5081441;28;20035;-81
2021/12/13 09:53:03;;;;;;;11.55;6.82;;;9.20;99.90;;;9.95;100.00;101686.97;5081461;28;20024;-81
2021/12/13 09:55:41;;;;;;;11.27;6.75;;;9.20;99.90;;;9.91;100.00;101696.34;5083411;28;20037;-83
2021/12/13 09:58:36;;;;;;;9.48;6.65;;;9.30;99.90;;;9.95;100.00;101702.94;5083910;28;20116;-82
2021/12/13 10:01:20;;;;;;;11.15;6.57;;;9.20;99.90;;;9.95;100.00;101698.16;5080457;28;20035;-83
2021/12/13 10:04:08;;;;;;;11.52;7.13;;;9.20;99.90;;;9.86;100.00;101704.88;5081551;28;20032;-82
2021/12/13 10:06:40;;;;;;;10.73;7.00;;;9.30;99.90;;;9.90;100.00;101706.69;5081578;28;20438;-82
2021/12/13 10:09:25;;;;;;;16.27;7.00;;;9.30;99.90;;;9.89;100.00;101698.63;5083656;28;20024;-82
2021/12/13 10:12:39;;;;;;;11.40;6.85;;;9.30;99.90;;;9.92;100.00;101686.84;5085212;28;20086;-81
2021/12/13 10:15:26;;;;;;;12.45;6.72;;;9.30;99.90;;;9.97;100.00;101695.03;5111539;28;20029;-82
2021/12/13 10:18:03;;;;;;;10.88;6.25;;;9.30;99.90;;;9.96;100.00;101693.38;5081215;28;20033;-82
2021/12/13 10:20:39;;;;;;;10.43;6.32;;;9.30;99.90;;;10.00;100.00;101689.63;5081502;28;20094;-79
2021/12/13 10:23:13;;;;;;;12.07;7.18;;;9.30;99.90;;;9.93;100.00;101688.47;5081390;28;20028;-82
2021/12/13 10:25:51;;;;;;;10.23;6.28;;;9.30;99.90;;;9.93;100.00;101708.81;5081714;28;20089;-81
2021/12/13 10:28:27;;;;;;;11.52;6.60;;;9.20;99.90;;;9.96;100.00;101696.19;5081292;28;20063;-81
2021/12/13 10:31:04;;;;;;;10.45;6.53;;;9.20;99.90;;;9.95;100.00;101691.75;5083077;28;20039;-80
2021/12/13 10:33:36;;;;;;;8.38;6.95;;;9.30;99.90;;;10.00;100.00;101697.16;5082629;28;20032;-79
2021/12/13 10:36:06;;;;;;;7.80;6.20;;;9.30;99.90;;;10.03;100.00;101686.16;5082320;28;20032;-82
2021/12/13 10:38:54;;;;;;;11.50;6.38;;;9.20;99.90;;;10.00;100.00;101689.63;5083584;28;20024;-80
2021/12/13 10:41:43;;;;;;;10.95;6.95;;;9.30;99.90;;;9.93;100.00;101692.09;5083985;28;20028;-81
2021/12/13 10:44:17;;;;;;;8.15;6.10;;;9.30;99.90;;;9.92;100.00;101693.22;5083354;28;20037;-82
2021/12/13 10:46:48;;;;;;;9.38;7.15;;;9.30;99.90;;;10.00;100.00;101699.97;5084164;28;20479;-81
2021/12/13 10:49:25;;;;;;;8.48;5.93;;;9.30;99.90;;;9.99;100.00;101695.53;5084923;28;20278;-82
2021/12/13 10:52:16;;;;;;;9.63;5.75;;;9.30;99.90;;;10.04;100.00;101703.75;5102046;28;20040;-81
2021/12/13 10:54:52;;;;;;;8.68;6.20;;;9.30;99.90;;;9.97;100.00;101695.88;5087213;28;20497;-83
2021/12/13 10:57:43;;;;;;;8.43;6.13;;;9.30;99.90;;;9.93;100.00;101694.88;5085599;28;20185;-85
2021/12/13 11:00:42;;;;;;;10.15;7.13;;;9.30;99.90;;;9.94;100.00;101699.31;5087783;28;20035;-81
2021/12/13 11:03:18;;;;;;;10.32;5.57;;;9.30;99.90;;;9.98;100.00;101699.47;5086811;28;20029;-82
2021/12/13 11:05:47;;;;;;;9.48;6.05;;;9.30;99.90;;;9.96;100.00;101702.59;5084996;28;20058;-83
2021/12/13 11:08:20;;;;;;;9.60;6.10;;;9.30;99.90;;;9.90;100.00;101689.94;5079940;28;20058;-82
2021/12/13 11:11:07;;;;;;;10.10;6.15;;;9.30;99.90;;;9.87;100.00;101693.41;5094645;28;20024;-82
2021/12/13 11:13:38;;;;;;;8.77;6.65;;;9.30;99.90;;;9.99;100.00;101690.75;5079838;28;20063;-82
2021/12/13 11:16:35;;;;;;;10.32;6.53;;;9.30;99.90;;;9.98;100.00;101685.53;5077432;28;20055;-81
2021/12/13 11:19:12;;;;;;;9.43;6.15;;;9.30;99.90;;;9.88;100.00;101695.06;5093828;28;20028;-81
2021/12/13 11:21:47;;;;;;;10.98;6.45;;;9.30;99.90;;;9.87;100.00;101687.81;5070515;28;20059;-83
2021/12/13 11:24:24;;;;;;;7.13;5.88;;;9.30;99.90;;;9.93;100.00;101689.28;5058234;28;20111;-81
2021/12/13 11:27:02;;;;;;;10.05;6.68;;;9.30;99.90;;;9.99;100.00;101682.38;5058270;28;20032;-81